Time;durP1;ratioP1;P1;durP2;ratioP2;P2;SDS_P1;SDS_P2;PMS_P1;PMS_P2;Temp;Humidity;BMP_temperature;BMP_pressure;BME280_temperature;BME280_humidity;BME280_pressure;Samples;Min_cycle;Max_cycle;Signal;HPM_P1;HPM_P2
2021/03/03 00:02:19;;;;;;;1.50;1.20;;;9.70;89.90;;;;;;5105330;28;20513;-77
2021/03/03 00:04:45;;;;;;;1.50;1.20;;;9.80;89.90;;;;;;5107922;28;20453;-79
2021/03/03 00:07:12;;;;;;;1.60;1.20;;;9.70;89.60;;;;;;5104500;28;20483;-78
2021/03/03 00:09:39;;;;;;;1.50;1.10;;;9.70;89.80;;;;;;5109691;28;20517;-80
2021/03/03 00:12:06;;;;;;;1.57;1.20;;;9.70;89.90;;;;;;5104793;28;20511;-78
2021/03/03 00:14:33;;;;;;;1.57;1.20;;;9.70;90.00;;;;;;5109446;28;20463;-78
2021/03/03 00:16:59;;;;;;;1.50;1.10;;;9.70;89.90;;;;;;5103515;28;20514;-78
2021/03/03 00:19:26;;;;;;;1.60;1.20;;;9.70;90.10;;;;;;5112470;28;20483;-80
2021/03/03 00:21:52;;;;;;;1.60;1.30;;;9.70;89.90;;;;;;5116333;27;20883;-78
2021/03/03 00:24:19;;;;;;;1.60;1.20;;;9.70;90.00;;;;;;5117370;27;20457;-78
2021/03/03 00:26:45;;;;;;;1.50;1.10;;;9.70;90.10;;;;;;5105987;28;20503;-80
2021/03/03 00:29:12;;;;;;;1.60;1.20;;;9.70;89.90;;;;;;5117429;28;20687;-79
2021/03/03 00:31:38;;;;;;;1.50;1.17;;;9.70;89.90;;;;;;5103611;28;20757;-79
2021/03/03 00:34:05;;;;;;;1.57;1.20;;;9.70;89.80;;;;;;5117667;28;20469;-77
2021/03/03 00:36:32;;;;;;;1.60;1.23;;;9.60;89.70;;;;;;5103748;28;20475;-77
2021/03/03 00:38:58;;;;;;;1.57;1.10;;;9.60;89.70;;;;;;5123073;27;20516;-80
2021/03/03 00:41:24;;;;;;;1.53;1.10;;;9.50;90.10;;;;;;5106752;27;20536;-76
2021/03/03 00:43:51;;;;;;;1.60;1.10;;;9.60;90.00;;;;;;5134510;27;20476;-78
2021/03/03 00:46:17;;;;;;;1.50;1.17;;;9.50;90.00;;;;;;5104471;27;20488;-77
2021/03/03 00:48:43;;;;;;;1.60;1.20;;;9.50;90.10;;;;;;5114586;27;20870;-78
2021/03/03 00:51:09;;;;;;;1.50;1.10;;;9.40;89.90;;;;;;5097091;28;20487;-77
2021/03/03 00:53:37;;;;;;;1.50;1.10;;;9.40;90.20;;;;;;5123509;28;20462;-76
2021/03/03 00:56:03;;;;;;;1.53;1.17;;;9.40;90.40;;;;;;5105088;28;20959;-77
2021/03/03 00:58:29;;;;;;;1.53;1.20;;;9.40;90.20;;;;;;5121982;28;20528;-78
2021/03/03 01:00:57;;;;;;;1.50;1.10;;;9.40;90.40;;;;;;5101578;27;20460;-79
2021/03/03 01:03:23;;;;;;;1.60;1.30;;;9.30;90.70;;;;;;5139284;27;20575;-79
2021/03/03 01:05:50;;;;;;;1.60;1.20;;;9.30;90.50;;;;;;5099817;28;20460;-79
2021/03/03 01:08:16;;;;;;;1.53;1.10;;;9.30;90.60;;;;;;5124390;28;20485;-78
2021/03/03 01:10:43;;;;;;;5.83;2.50;;;9.30;90.70;;;;;;5110688;28;20536;-79
2021/03/03 01:13:10;;;;;;;1.87;1.67;;;9.30;90.80;;;;;;5131023;27;20488;-76
2021/03/03 01:15:36;;;;;;;1.57;1.27;;;9.30;90.70;;;;;;5109833;28;20523;-77
2021/03/03 01:18:02;;;;;;;1.60;1.20;;;9.30;90.60;;;;;;5115586;28;20479;-77
2021/03/03 01:20:29;;;;;;;1.57;1.20;;;9.20;90.70;;;;;;5110465;28;20453;-79
2021/03/03 01:22:56;;;;;;;1.53;1.20;;;9.20;90.90;;;;;;5113899;28;20513;-78
2021/03/03 01:25:22;;;;;;;1.60;1.20;;;9.20;90.70;;;;;;5109859;28;20491;-79
2021/03/03 01:27:49;;;;;;;1.57;1.20;;;9.20;90.70;;;;;;5116153;27;20483;-76
2021/03/03 01:30:17;;;;;;;1.60;1.33;;;9.10;90.90;;;;;;5109099;28;20480;-77
2021/03/03 01:32:43;;;;;;;1.60;1.33;;;9.10;91.10;;;;;;5115170;28;20483;-77
2021/03/03 01:35:11;;;;;;;1.53;1.20;;;9.10;91.00;;;;;;5110482;28;20467;-79
2021/03/03 01:37:37;;;;;;;1.60;1.20;;;9.10;91.10;;;;;;5119876;27;20854;-76
2021/03/03 01:40:05;;;;;;;1.60;1.30;;;9.10;91.30;;;;;;5112533;28;20479;-77
2021/03/03 01:42:31;;;;;;;1.60;1.20;;;9.00;91.10;;;;;;5113338;28;20482;-77
2021/03/03 01:44:58;;;;;;;1.60;1.20;;;9.00;91.30;;;;;;5112205;28;20528;-77
2021/03/03 01:47:25;;;;;;;1.53;1.20;;;9.00;91.10;;;;;;5112835;27;20479;-78
2021/03/03 01:49:51;;;;;;;1.57;1.20;;;9.00;91.10;;;;;;5113387;28;20552;-78
2021/03/03 01:52:18;;;;;;;1.57;1.20;;;9.00;91.30;;;;;;5112132;28;20487;-79
2021/03/03 01:54:45;;;;;;;1.50;1.20;;;9.00;91.40;;;;;;5114869;28;20490;-78
2021/03/03 01:57:12;;;;;;;1.53;1.20;;;9.00;91.10;;;;;;5114878;28;20544;-76
2021/03/03 01:59:39;;;;;;;1.57;1.17;;;9.00;91.40;;;;;;5119221;28;20590;-76
2021/03/03 02:02:06;;;;;;;1.60;1.30;;;8.90;91.20;;;;;;5108851;27;20490;-78
2021/03/03 02:04:32;;;;;;;1.57;1.20;;;8.90;91.30;;;;;;5107193;28;20452;-78
2021/03/03 02:07:06;;;;;;;1.57;1.20;;;8.90;91.50;;;;;;5100812;28;20509;-78
2021/03/03 02:09:40;;;;;;;1.60;1.30;;;8.90;91.50;;;;;;5115429;27;20471;-80
2021/03/03 02:12:12;;;;;;;1.80;1.57;;;8.90;91.40;;;;;;5103590;27;20981;-79
2021/03/03 02:14:40;;;;;;;1.57;1.20;;;8.90;91.50;;;;;;5112804;28;20448;-79
2021/03/03 02:17:07;;;;;;;1.57;1.20;;;8.80;91.70;;;;;;5109236;27;20496;-78
2021/03/03 02:19:38;;;;;;;1.60;1.30;;;8.80;91.60;;;;;;5113005;28;20528;-79
2021/03/03 02:22:09;;;;;;;1.60;1.20;;;8.80;91.80;;;;;;5111623;27;20480;-78
2021/03/03 02:24:43;;;;;;;1.60;1.27;;;8.80;91.50;;;;;;5112655;28;20465;-79
2021/03/03 02:27:11;;;;;;;2.83;1.77;;;8.70;91.70;;;;;;5107621;28;20480;-78
2021/03/03 02:29:38;;;;;;;1.60;1.20;;;8.70;91.60;;;;;;5111434;28;20473;-79
2021/03/03 02:32:06;;;;;;;1.57;1.30;;;8.70;91.80;;;;;;5106258;28;20523;-78
2021/03/03 02:34:33;;;;;;;1.50;1.20;;;8.70;91.80;;;;;;5112102;28;20460;-79
2021/03/03 02:37:00;;;;;;;1.50;1.17;;;8.70;91.60;;;;;;5107265;28;20543;-78
2021/03/03 02:39:29;;;;;;;1.60;1.33;;;8.60;91.80;;;;;;5115581;27;20823;-79
2021/03/03 02:41:56;;;;;;;1.53;1.20;;;8.60;91.90;;;;;;5103585;28;20495;-79
2021/03/03 02:44:24;;;;;;;1.50;1.20;;;8.60;91.90;;;;;;5112536;28;20962;-78
2021/03/03 02:46:51;;;;;;;1.53;1.17;;;8.60;92.20;;;;;;5103713;28;20881;-80
2021/03/03 02:49:20;;;;;;;1.60;1.30;;;8.60;92.10;;;;;;5112522;28;20487;-79
2021/03/03 02:51:46;;;;;;;1.60;1.30;;;8.60;92.40;;;;;;5106628;27;20504;-80
2021/03/03 02:54:13;;;;;;;1.50;1.17;;;8.60;92.20;;;;;;5112747;28;20456;-80
2021/03/03 02:56:40;;;;;;;1.57;1.20;;;8.60;92.30;;;;;;5105822;27;20478;-76
2021/03/03 02:59:16;;;;;;;1.60;1.30;;;8.60;92.30;;;;;;5119034;27;20896;-81
2021/03/03 03:01:47;;;;;;;1.53;1.10;;;8.60;92.30;;;;;;5093320;28;20850;-81
2021/03/03 03:04:17;;;;;;;1.57;1.20;;;8.60;92.10;;;;;;5102999;28;20515;-78
2021/03/03 03:06:45;;;;;;;1.60;1.20;;;8.60;92.10;;;;;;5095340;27;20475;-78
2021/03/03 03:09:15;;;;;;;1.57;1.20;;;8.60;92.10;;;;;;5122139;27;20487;-79
2021/03/03 03:11:51;;;;;;;1.60;1.20;;;8.60;92.10;;;;;;5109117;27;20709;-79
2021/03/03 03:14:20;;;;;;;1.53;1.13;;;8.60;92.10;;;;;;5107164;28;20471;-80
2021/03/03 03:16:49;;;;;;;1.53;1.20;;;8.60;92.00;;;;;;5101480;28;20544;-80
2021/03/03 03:19:20;;;;;;;1.60;1.20;;;8.60;92.00;;;;;;5092103;28;20449;-78
2021/03/03 03:21:48;;;;;;;1.60;1.30;;;8.60;91.90;;;;;;5094504;27;20573;-77
2021/03/03 03:24:20;;;;;;;2.37;2.17;;;8.60;91.80;;;;;;5120126;27;21100;-77
2021/03/03 03:26:48;;;;;;;1.57;1.30;;;8.60;91.80;;;;;;5104754;27;20512;-79
2021/03/03 03:29:15;;;;;;;1.53;1.20;;;8.60;91.70;;;;;;5112152;28;20488;-76
2021/03/03 03:31:42;;;;;;;1.57;1.20;;;8.60;91.80;;;;;;5098945;28;20544;-78
2021/03/03 03:34:12;;;;;;;1.53;1.30;;;8.60;91.70;;;;;;5111645;28;20552;-80
2021/03/03 03:36:39;;;;;;;1.60;1.30;;;8.60;91.90;;;;;;5100002;28;20580;-78
2021/03/03 03:39:08;;;;;;;1.60;1.20;;;8.70;91.80;;;;;;5114376;28;20481;-80
2021/03/03 03:41:36;;;;;;;1.53;1.20;;;8.70;91.40;;;;;;5102634;28;21010;-78
2021/03/03 03:44:06;;;;;;;1.57;1.20;;;8.70;91.60;;;;;;5117885;28;20455;-77
2021/03/03 03:46:33;;;;;;;1.50;1.10;;;8.70;91.50;;;;;;5105460;27;20471;-77
2021/03/03 03:49:00;;;;;;;1.57;1.20;;;8.70;91.40;;;;;;5115705;28;20487;-79
2021/03/03 03:51:28;;;;;;;1.53;1.20;;;8.70;91.20;;;;;;5101526;28;20511;-78
2021/03/03 03:53:54;;;;;;;1.57;1.20;;;8.60;91.30;;;;;;5105264;27;20462;-77
2021/03/03 03:56:21;;;;;;;1.60;1.17;;;8.60;91.40;;;;;;5087682;28;20543;-79
2021/03/03 03:58:47;;;;;;;1.53;1.20;;;8.60;91.40;;;;;;5116993;28;20453;-78
2021/03/03 04:01:13;;;;;;;1.53;1.20;;;8.50;91.50;;;;;;5098766;28;20536;-79
2021/03/03 04:03:40;;;;;;;1.57;1.30;;;8.50;91.40;;;;;;5117625;28;20452;-80
2021/03/03 04:06:06;;;;;;;1.60;1.20;;;8.50;91.80;;;;;;5097549;28;20456;-79
2021/03/03 04:08:34;;;;;;;1.83;1.73;;;8.50;91.80;;;;;;5117265;28;20452;-78
2021/03/03 04:11:00;;;;;;;1.53;1.17;;;8.40;91.90;;;;;;5095711;28;20559;-78
2021/03/03 04:13:26;;;;;;;1.50;1.20;;;8.40;91.80;;;;;;5120030;28;20770;-80
2021/03/03 04:15:53;;;;;;;1.60;1.40;;;8.40;91.70;;;;;;5093736;28;20475;-78
2021/03/03 04:18:19;;;;;;;1.53;1.20;;;8.40;91.80;;;;;;5136991;28;20516;-78
2021/03/03 04:20:45;;;;;;;1.60;1.37;;;8.40;92.10;;;;;;5103352;28;20459;-79
2021/03/03 04:23:12;;;;;;;1.60;1.20;;;8.40;92.20;;;;;;5109187;28;20548;-79
2021/03/03 04:25:39;;;;;;;1.53;1.20;;;8.40;92.50;;;;;;5102990;28;20490;-78
2021/03/03 04:28:06;;;;;;;1.60;1.20;;;8.40;92.70;;;;;;5102560;28;20479;-80
2021/03/03 04:30:34;;;;;;;1.60;1.30;;;8.40;92.30;;;;;;5091168;28;20568;-79
2021/03/03 04:33:01;;;;;;;1.53;1.20;;;8.40;92.50;;;;;;5098845;28;20545;-80
2021/03/03 04:35:27;;;;;;;1.57;1.20;;;8.40;92.30;;;;;;5087391;28;20487;-80
2021/03/03 04:37:54;;;;;;;1.50;1.10;;;8.40;92.50;;;;;;5091636;28;20574;-79
2021/03/03 04:40:20;;;;;;;1.50;1.20;;;8.40;92.60;;;;;;5088589;28;20522;-79
2021/03/03 04:42:47;;;;;;;1.57;1.20;;;8.40;92.30;;;;;;5092149;28;20475;-79
2021/03/03 04:45:14;;;;;;;1.50;1.20;;;8.50;92.30;;;;;;5089926;28;20834;-79
2021/03/03 04:47:41;;;;;;;1.50;1.13;;;8.50;92.50;;;;;;5090107;28;20539;-79
2021/03/03 04:50:08;;;;;;;1.57;1.20;;;8.50;92.30;;;;;;5088986;28;20572;-79
2021/03/03 04:52:35;;;;;;;1.50;1.10;;;8.50;91.90;;;;;;5092588;28;20485;-79
2021/03/03 04:55:01;;;;;;;1.53;1.20;;;8.50;91.90;;;;;;5091904;28;20555;-79
2021/03/03 04:57:28;;;;;;;1.53;1.20;;;8.50;91.80;;;;;;5093880;28;20485;-79
2021/03/03 04:59:55;;;;;;;1.50;1.20;;;8.60;91.70;;;;;;5094372;28;20505;-80
2021/03/03 05:02:21;;;;;;;1.50;1.10;;;8.60;91.80;;;;;;5098084;28;20552;-80
2021/03/03 05:04:48;;;;;;;1.80;1.60;;;8.60;91.70;;;;;;5091784;28;20975;-82
2021/03/03 05:07:14;;;;;;;1.50;1.20;;;8.50;92.00;;;;;;5098106;27;20475;-81
2021/03/03 05:09:41;;;;;;;1.60;1.20;;;8.50;92.00;;;;;;5102058;28;20544;-81
2021/03/03 05:12:08;;;;;;;1.50;1.20;;;8.50;92.20;;;;;;5096452;28;20483;-81
2021/03/03 05:14:34;;;;;;;1.60;1.20;;;8.50;91.90;;;;;;5100233;28;20484;-81
2021/03/03 05:17:01;;;;;;;1.60;1.30;;;8.50;92.00;;;;;;5093464;28;20475;-81
2021/03/03 05:19:28;;;;;;;1.60;1.20;;;8.50;92.10;;;;;;5100225;28;20547;-82
2021/03/03 05:21:54;;;;;;;1.60;1.20;;;8.50;92.00;;;;;;5092932;28;21033;-81
2021/03/03 05:24:20;;;;;;;1.73;1.57;;;8.50;91.80;;;;;;5100600;28;20474;-81
2021/03/03 05:26:47;;;;;;;1.60;1.20;;;8.40;91.80;;;;;;5091616;28;20480;-81
2021/03/03 05:29:13;;;;;;;1.57;1.23;;;8.40;91.80;;;;;;5102622;27;20543;-81
2021/03/03 05:31:41;;;;;;;1.60;1.40;;;8.40;91.60;;;;;;5092328;28;20507;-81
2021/03/03 05:34:08;;;;;;;1.50;1.20;;;8.50;91.70;;;;;;5104820;28;20488;-81
2021/03/03 05:36:34;;;;;;;1.70;1.50;;;8.50;91.60;;;;;;5089734;27;20571;-81
2021/03/03 05:39:01;;;;;;;1.57;1.20;;;8.50;91.50;;;;;;5106067;27;20950;-81
2021/03/03 05:41:27;;;;;;;1.60;1.20;;;8.50;91.60;;;;;;5084254;28;20492;-81
2021/03/03 05:43:55;;;;;;;1.53;1.20;;;8.60;91.70;;;;;;5107404;28;20464;-81
2021/03/03 05:46:21;;;;;;;1.50;1.20;;;8.60;91.60;;;;;;5087525;27;20517;-81
2021/03/03 05:48:52;;;;;;;1.50;1.10;;;8.60;91.70;;;;;;5105776;27;20495;-80
2021/03/03 05:51:21;;;;;;;1.53;1.20;;;8.60;91.50;;;;;;5082393;27;20480;-80
2021/03/03 05:53:48;;;;;;;1.60;1.20;;;8.60;91.50;;;;;;5105316;27;20472;-81
2021/03/03 05:56:15;;;;;;;1.57;1.20;;;8.60;91.70;;;;;;5086687;28;20502;-80
2021/03/03 05:58:42;;;;;;;2.53;2.33;;;8.60;91.60;;;;;;5106486;27;20598;-79
2021/03/03 06:01:10;;;;;;;1.50;1.10;;;8.60;91.50;;;;;;5086855;27;20892;-80
2021/03/03 06:03:38;;;;;;;1.57;1.20;;;8.60;91.60;;;;;;5112029;27;20536;-80
2021/03/03 06:06:05;;;;;;;1.53;1.20;;;8.60;91.30;;;;;;5085317;28;20490;-80
2021/03/03 06:08:33;;;;;;;1.60;1.30;;;8.60;91.30;;;;;;5113049;27;20452;-79
2021/03/03 06:10:59;;;;;;;1.57;1.20;;;8.50;91.60;;;;;;5083265;28;20481;-80
2021/03/03 06:13:26;;;;;;;1.57;1.20;;;8.50;91.60;;;;;;5108385;27;20483;-79
2021/03/03 06:15:52;;;;;;;1.57;1.20;;;8.50;91.60;;;;;;5085155;28;20456;-80
2021/03/03 06:18:20;;;;;;;1.60;1.30;;;8.40;91.70;;;;;;5102719;28;20832;-79
2021/03/03 06:20:48;;;;;;;1.57;1.20;;;8.40;91.50;;;;;;5096988;28;20468;-79
2021/03/03 06:23:19;;;;;;;1.60;1.30;;;8.40;91.80;;;;;;5078299;28;20540;-79
2021/03/03 06:25:49;;;;;;;1.53;1.20;;;8.30;91.80;;;;;;5095176;28;20445;-79
2021/03/03 06:28:34;;;;;;;1.60;1.30;;;8.30;91.70;;;;;;5060572;28;20564;-78
2021/03/03 06:31:01;;;;;;;1.50;1.20;;;8.30;91.70;;;;;;5094302;28;20519;-79
2021/03/03 06:33:28;;;;;;;1.57;1.20;;;8.20;91.80;;;;;;5118878;28;20553;-78
2021/03/03 06:35:55;;;;;;;1.60;1.30;;;8.20;92.00;;;;;;5093745;27;20521;-76
2021/03/03 06:38:28;;;;;;;1.60;1.30;;;8.20;92.10;;;;;;5119727;28;20530;-77
2021/03/03 06:40:58;;;;;;;1.50;1.20;;;8.20;92.30;;;;;;5096073;28;20453;-78
2021/03/03 06:43:26;;;;;;;1.80;1.70;;;8.20;92.30;;;;;;5118225;28;20491;-78
2021/03/03 06:45:53;;;;;;;1.53;1.20;;;8.20;92.60;;;;;;5094441;28;20469;-79
2021/03/03 06:48:35;;;;;;;1.57;1.20;;;8.20;92.40;;;;;;5134158;27;20453;-80
2021/03/03 06:51:17;;;;;;;1.53;1.20;;;8.20;92.40;;;;;;5094888;27;20453;-79
2021/03/03 06:53:44;;;;;;;1.60;1.20;;;8.30;92.30;;;;;;5113257;28;20555;-78
2021/03/03 06:56:11;;;;;;;1.60;1.30;;;8.20;92.60;;;;;;5076762;28;20499;-79
2021/03/03 06:58:37;;;;;;;1.60;1.30;;;8.30;92.50;;;;;;5100326;28;20463;-79
2021/03/03 07:01:04;;;;;;;1.57;1.20;;;8.30;92.70;;;;;;5079176;28;20552;-77
2021/03/03 07:03:34;;;;;;;1.53;1.20;;;8.30;92.90;;;;;;5107008;28;20454;-77
2021/03/03 07:06:01;;;;;;;1.73;1.63;;;8.30;92.90;;;;;;5075185;28;20497;-77
2021/03/03 07:08:27;;;;;;;1.57;1.20;;;8.30;92.90;;;;;;5098000;28;20476;-79
2021/03/03 07:10:54;;;;;;;1.60;1.20;;;8.30;92.80;;;;;;5073617;28;20509;-76
2021/03/03 07:16:13;;;;;;;1.60;1.20;;;8.30;92.60;;;;;;5111783;27;20557;-80
2021/03/03 07:18:40;;;;;;;2.00;1.87;;;8.40;92.50;;;;;;5106118;28;20526;-77
2021/03/03 07:21:08;;;;;;;1.50;1.20;;;8.40;92.60;;;;;;5072806;28;20465;-77
2021/03/03 07:23:46;;;;;;;1.60;1.20;;;8.40;92.60;;;;;;5082519;28;20454;-78
2021/03/03 07:26:14;;;;;;;2.83;2.57;;;8.50;92.40;;;;;;5057087;28;20484;-77
2021/03/03 07:28:41;;;;;;;1.53;1.20;;;8.50;92.20;;;;;;5078687;28;20996;-77
2021/03/03 07:31:08;;;;;;;1.60;1.20;;;8.50;92.00;;;;;;5050430;28;20521;-79
2021/03/03 07:33:36;;;;;;;1.57;1.20;;;8.60;91.90;;;;;;5082088;28;20454;-78
2021/03/03 07:38:49;;;;;;;1.57;1.20;;;8.70;91.80;;;;;;5070075;28;20470;-78
2021/03/03 07:41:17;;;;;;;1.53;1.10;;;8.70;91.60;;;;;;5054065;28;20476;-78
2021/03/03 07:43:46;;;;;;;1.60;1.30;;;8.70;91.80;;;;;;5080659;28;20591;-79
2021/03/03 07:46:14;;;;;;;1.60;1.30;;;8.70;91.60;;;;;;5052689;28;20511;-77
2021/03/03 07:48:49;;;;;;;1.60;1.40;;;8.80;91.70;;;;;;5077858;28;20508;-78
2021/03/03 07:51:18;;;;;;;1.60;1.20;;;8.80;91.60;;;;;;5054820;28;20476;-78
2021/03/03 07:53:45;;;;;;;1.60;1.20;;;8.80;91.80;;;;;;5078560;28;20446;-78
2021/03/03 07:56:12;;;;;;;1.53;1.20;;;8.90;91.60;;;;;;5054484;28;20930;-78
2021/03/03 07:58:40;;;;;;;1.60;1.30;;;9.00;91.40;;;;;;5082671;28;20462;-78
2021/03/03 08:01:10;;;;;;;1.60;1.20;;;9.00;91.10;;;;;;5051934;28;20589;-79
2021/03/03 08:03:48;;;;;;;1.50;1.20;;;9.00;91.00;;;;;;5081292;28;20565;-81
2021/03/03 08:06:31;;;;;;;1.50;1.20;;;9.10;90.80;;;;;;5056679;28;20476;-80
2021/03/03 08:09:15;;;;;;;1.57;1.10;;;9.10;91.00;;;;;;5079391;28;20447;-77
2021/03/03 08:11:46;;;;;;;1.60;1.20;;;9.20;90.80;;;;;;5056609;28;20485;-79
2021/03/03 08:14:31;;;;;;;1.60;1.20;;;9.20;91.00;;;;;;5054501;28;20491;-79
2021/03/03 08:16:59;;;;;;;1.60;1.40;;;9.30;90.80;;;;;;5035372;28;20502;-80
2021/03/03 08:20:00;;;;;;;1.53;1.17;;;9.40;90.20;;;;;;5043392;28;20491;-79
2021/03/03 08:22:51;;;;;;;1.60;1.20;;;9.40;90.20;;;;;;5040327;28;20512;-79
2021/03/03 08:25:46;;;;;;;1.60;1.27;;;9.40;90.20;;;;;;5037992;28;20459;-78
2021/03/03 08:28:34;;;;;;;1.57;1.10;;;9.50;90.20;;;;;;5027293;28;20574;-78
2021/03/03 08:31:32;;;;;;;1.60;1.30;;;9.60;90.40;;;;;;5036278;28;20454;-78
2021/03/03 08:34:01;;;;;;;1.60;1.10;;;9.80;90.00;;;;;;5060112;28;20519;-78
2021/03/03 08:36:55;;;;;;;1.57;1.10;;;9.90;89.60;;;;;;5039983;28;20485;-79
2021/03/03 08:39:40;;;;;;;1.60;1.20;;;10.10;88.90;;;;;;5055571;28;20482;-78
2021/03/03 08:42:32;;;;;;;1.50;1.10;;;10.20;88.30;;;;;;5051616;28;20511;-78
2021/03/03 08:45:00;;;;;;;1.53;1.10;;;10.40;88.70;;;;;;5043791;28;20817;-79
2021/03/03 08:47:56;;;;;;;1.53;1.10;;;10.60;88.30;;;;;;5054582;28;20481;-77
2021/03/03 08:50:44;;;;;;;1.57;1.20;;;10.80;87.70;;;;;;5019939;28;20464;-78
2021/03/03 08:53:31;;;;;;;1.57;1.10;;;10.90;87.20;;;;;;5042994;28;21183;-78
2021/03/03 08:55:59;;;;;;;1.53;1.10;;;11.10;86.60;;;;;;5028292;28;21021;-79
2021/03/03 08:59:03;;;;;;;1.60;1.10;;;11.20;86.40;;;;;;5068070;28;20514;-78
2021/03/03 09:01:51;;;;;;;1.53;1.10;;;11.40;86.90;;;;;;5040801;28;20481;-78
2021/03/03 09:04:18;;;;;;;1.57;1.10;;;11.60;86.00;;;;;;5041264;28;20508;-78
2021/03/03 09:06:46;;;;;;;2.33;1.93;;;11.70;85.30;;;;;;5048522;28;20490;-76
2021/03/03 09:09:14;;;;;;;1.57;1.00;;;11.80;85.00;;;;;;5057743;28;20458;-77
2021/03/03 09:11:40;;;;;;;1.60;1.27;;;11.90;84.70;;;;;;5046248;28;20670;-77
2021/03/03 09:14:07;;;;;;;1.53;1.10;;;11.90;84.30;;;;;;5056235;28;20471;-76
2021/03/03 09:16:34;;;;;;;1.60;1.00;;;12.00;84.40;;;;;;5042307;28;20538;-76
2021/03/03 09:19:05;;;;;;;1.60;1.07;;;12.20;84.40;;;;;;5058132;28;20522;-76
2021/03/03 09:21:32;;;;;;;1.50;1.00;;;12.40;83.80;;;;;;5041760;28;20538;-77
2021/03/03 09:24:12;;;;;;;1.53;1.07;;;12.60;83.50;;;;;;5060373;28;20466;-77
2021/03/03 09:26:40;;;;;;;1.57;1.10;;;12.80;82.80;;;;;;5040002;28;20485;-76
2021/03/03 09:29:06;;;;;;;1.53;1.00;;;13.00;82.50;;;;;;5054595;28;21000;-76
2021/03/03 09:31:35;;;;;;;1.60;1.00;;;13.10;82.30;;;;;;5019666;28;21013;-76
2021/03/03 09:34:01;;;;;;;1.53;1.00;;;13.30;81.80;;;;;;5050064;28;20566;-76
2021/03/03 09:36:28;;;;;;;1.57;1.00;;;13.40;82.00;;;;;;5037391;28;20482;-76
2021/03/03 09:38:56;;;;;;;1.50;1.00;;;13.50;81.00;;;;;;5055147;28;20467;-76
2021/03/03 09:41:23;;;;;;;1.60;1.10;;;13.60;81.30;;;;;;5035091;28;21012;-77
2021/03/03 09:44:02;;;;;;;1.57;1.10;;;13.70;81.10;;;;;;5038824;28;20468;-76
2021/03/03 09:46:44;;;;;;;1.60;1.10;;;13.70;80.90;;;;;;5016458;28;20581;-77
2021/03/03 09:49:21;;;;;;;1.60;1.20;;;13.90;80.90;;;;;;5040243;28;20469;-78
2021/03/03 09:51:48;;;;;;;1.57;1.00;;;14.00;80.10;;;;;;5034462;28;20522;-78
2021/03/03 09:54:26;;;;;;;1.50;1.00;;;14.20;80.50;;;;;;5047561;28;20819;-77
2021/03/03 09:56:52;;;;;;;1.93;1.63;;;14.40;79.80;;;;;;5032566;28;20493;-78
2021/03/03 09:59:20;;;;;;;1.50;1.00;;;14.50;79.60;;;;;;5027720;28;20460;-77
2021/03/03 10:01:47;;;;;;;1.50;1.00;;;14.70;79.40;;;;;;5023448;28;20485;-78
2021/03/03 10:04:15;;;;;;;1.60;1.10;;;14.90;78.60;;;;;;5028279;28;20460;-77
2021/03/03 10:06:41;;;;;;;1.57;1.00;;;15.00;77.70;;;;;;5026142;28;20522;-77
2021/03/03 10:09:08;;;;;;;1.87;1.40;;;15.10;76.90;;;;;;5050663;28;20474;-76
2021/03/03 10:11:35;;;;;;;1.50;1.00;;;15.20;76.90;;;;;;5037571;28;20654;-77
2021/03/03 10:14:05;;;;;;;1.57;1.00;;;15.30;76.90;;;;;;5053123;28;20758;-77
2021/03/03 10:16:32;;;;;;;1.57;0.90;;;15.30;76.60;;;;;;5035755;28;20554;-77
2021/03/03 10:19:04;;;;;;;1.60;1.10;;;15.40;76.80;;;;;;5055141;28;20463;-77
2021/03/03 10:21:30;;;;;;;1.60;1.00;;;15.60;76.40;;;;;;5027178;28;21089;-77
2021/03/03 10:23:57;;;;;;;1.57;1.00;;;15.70;75.90;;;;;;5033562;28;20521;-77
2021/03/03 10:26:39;;;;;;;1.50;1.00;;;15.70;74.70;;;;;;5013902;28;20521;-77
2021/03/03 10:29:05;;;;;;;1.53;1.00;;;15.70;75.10;;;;;;5032895;28;20564;-78
2021/03/03 10:31:48;;;;;;;2.07;1.87;;;15.80;75.70;;;;;;5018772;28;20602;-77
2021/03/03 10:34:29;;;;;;;2.00;1.20;;;16.00;75.30;;;;;;5035674;28;20460;-77
2021/03/03 10:36:55;;;;;;;1.50;0.90;;;16.20;75.20;;;;;;5019893;28;20486;-78
2021/03/03 10:39:27;;;;;;;1.50;1.00;;;16.30;74.80;;;;;;5026353;28;20520;-78
2021/03/03 10:41:59;;;;;;;1.57;1.00;;;16.30;74.40;;;;;;5020473;28;20933;-78
2021/03/03 10:44:38;;;;;;;1.53;1.00;;;16.50;74.20;;;;;;5024600;28;20452;-78
2021/03/03 10:47:05;;;;;;;1.53;0.90;;;16.60;74.90;;;;;;5023039;28;20490;-77
2021/03/03 10:49:32;;;;;;;1.50;0.97;;;16.80;74.20;;;;;;5021989;28;20475;-77
2021/03/03 10:51:59;;;;;;;1.53;1.00;;;16.90;73.80;;;;;;5019917;28;20490;-77
2021/03/03 10:54:33;;;;;;;1.57;1.00;;;17.00;74.60;;;;;;5023590;28;20834;-77
2021/03/03 10:57:06;;;;;;;1.50;1.00;;;17.10;74.10;;;;;;5020169;28;20484;-78
2021/03/03 10:59:32;;;;;;;1.53;0.90;;;17.10;73.00;;;;;;5022447;28;20859;-78
2021/03/03 11:02:00;;;;;;;1.53;1.00;;;17.00;72.60;;;;;;5029928;28;20493;-76
2021/03/03 11:04:41;;;;;;;1.60;1.00;;;16.90;73.60;;;;;;5025568;28;20453;-77
2021/03/03 11:07:08;;;;;;;1.50;1.00;;;16.90;73.00;;;;;;5026866;28;20504;-77
2021/03/03 11:09:35;;;;;;;1.60;1.00;;;16.90;73.80;;;;;;5022581;28;20467;-77
2021/03/03 11:12:02;;;;;;;1.73;1.43;;;17.00;74.50;;;;;;5031875;28;20512;-81
2021/03/03 11:14:30;;;;;;;1.50;0.90;;;17.10;74.00;;;;;;5026936;28;20522;-78
2021/03/03 11:16:58;;;;;;;1.53;0.90;;;17.40;74.00;;;;;;5039021;28;20485;-77
2021/03/03 11:19:25;;;;;;;1.50;0.90;;;17.50;74.00;;;;;;5043294;28;20517;-78
2021/03/03 11:21:53;;;;;;;1.50;0.90;;;17.60;72.30;;;;;;5030935;28;20965;-77
2021/03/03 11:24:20;;;;;;;1.53;1.00;;;17.80;73.40;;;;;;5026432;28;20875;-77
2021/03/03 11:26:47;;;;;;;1.50;0.90;;;17.90;73.10;;;;;;5015679;28;20488;-76
2021/03/03 11:29:15;;;;;;;1.97;1.33;;;18.00;72.70;;;;;;5028029;28;20555;-76
2021/03/03 11:31:43;;;;;;;1.53;0.97;;;18.10;72.40;;;;;;5019268;28;20566;-77
2021/03/03 11:34:09;;;;;;;1.50;0.97;;;18.20;71.90;;;;;;5025181;28;20506;-75
2021/03/03 11:36:36;;;;;;;1.60;0.90;;;18.20;72.70;;;;;;5016241;28;20546;-77
2021/03/03 11:39:05;;;;;;;1.50;1.00;;;18.20;72.30;;;;;;5021669;28;20859;-77
2021/03/03 11:41:31;;;;;;;1.50;0.90;;;18.30;72.50;;;;;;5000018;28;20491;-78
2021/03/03 11:43:58;;;;;;;1.50;0.93;;;18.40;72.50;;;;;;5023358;28;20494;-76
2021/03/03 11:46:24;;;;;;;1.53;0.90;;;18.50;71.60;;;;;;5015257;28;20485;-77
2021/03/03 11:48:51;;;;;;;1.50;0.90;;;18.60;72.30;;;;;;5031003;28;20472;-78
2021/03/03 11:51:17;;;;;;;1.57;0.90;;;18.70;72.60;;;;;;5008949;28;20486;-78
2021/03/03 11:53:44;;;;;;;1.50;0.90;;;18.80;72.10;;;;;;5034521;28;20463;-78
2021/03/03 11:56:11;;;;;;;1.60;1.00;;;18.80;71.50;;;;;;5005199;28;20529;-78
2021/03/03 11:58:37;;;;;;;1.57;0.90;;;18.80;72.40;;;;;;5035668;28;20486;-78
2021/03/03 12:01:04;;;;;;;1.50;0.90;;;18.90;72.30;;;;;;5006930;28;20967;-77
2021/03/03 12:03:31;;;;;;;1.50;0.90;;;19.10;71.90;;;;;;5041224;28;20966;-77
2021/03/03 12:05:57;;;;;;;1.70;1.17;;;19.00;71.70;;;;;;5008679;28;20464;-78
2021/03/03 12:08:24;;;;;;;1.60;1.20;;;19.10;71.80;;;;;;5042532;28;20464;-78
2021/03/03 12:10:50;;;;;;;1.53;0.90;;;19.20;71.90;;;;;;5002833;28;20556;-78
2021/03/03 12:13:17;;;;;;;1.70;1.30;;;19.30;71.60;;;;;;5045210;28;20567;-78
2021/03/03 12:15:44;;;;;;;1.53;0.97;;;19.40;71.40;;;;;;5014297;28;20496;-78
2021/03/03 12:18:10;;;;;;;1.53;0.90;;;19.40;71.80;;;;;;5037418;28;20495;-79
2021/03/03 12:20:37;;;;;;;1.57;1.00;;;19.50;72.10;;;;;;5014159;28;20750;-79
2021/03/03 12:23:03;;;;;;;1.53;1.00;;;19.40;70.90;;;;;;5052038;28;20489;-78
2021/03/03 12:25:31;;;;;;;1.50;0.90;;;19.40;71.90;;;;;;5031586;28;20499;-79
2021/03/03 12:27:57;;;;;;;1.57;0.90;;;19.40;72.10;;;;;;5056501;28;20541;-78
2021/03/03 12:30:26;;;;;;;1.57;1.00;;;19.50;72.10;;;;;;5034002;28;20562;-78
2021/03/03 12:32:52;;;;;;;1.60;1.10;;;19.60;72.20;;;;;;5035432;28;20482;-77
2021/03/03 12:35:19;;;;;;;1.53;0.93;;;19.70;71.70;;;;;;5009501;28;20487;-77
2021/03/03 12:37:45;;;;;;;1.60;1.10;;;19.70;70.80;;;;;;5031544;28;20486;-77
2021/03/03 12:40:12;;;;;;;1.50;0.90;;;19.70;70.70;;;;;;5010764;28;20500;-77
2021/03/03 12:42:38;;;;;;;1.50;0.90;;;19.80;70.10;;;;;;5027622;28;20878;-77
2021/03/03 12:45:06;;;;;;;1.53;1.00;;;19.80;70.70;;;;;;5013493;28;20923;-77
2021/03/03 12:47:34;;;;;;;1.50;0.90;;;19.90;70.20;;;;;;5028337;28;20506;-77
2021/03/03 12:50:00;;;;;;;1.53;0.90;;;19.90;70.60;;;;;;5018366;28;20468;-78
2021/03/03 12:52:26;;;;;;;1.50;0.90;;;19.90;71.00;;;;;;5043846;28;20583;-77
2021/03/03 12:54:53;;;;;;;1.50;0.90;;;19.90;70.90;;;;;;5037977;28;20505;-78
2021/03/03 12:57:19;;;;;;;1.50;1.00;;;19.80;71.10;;;;;;5037103;28;20569;-77
2021/03/03 12:59:46;;;;;;;1.70;1.20;;;19.80;71.20;;;;;;5021671;28;20567;-78
2021/03/03 13:02:12;;;;;;;1.50;0.90;;;19.80;70.10;;;;;;5027409;28;20482;-78
2021/03/03 13:04:39;;;;;;;1.50;0.90;;;19.80;70.80;;;;;;5017466;28;20841;-78
2021/03/03 13:07:08;;;;;;;1.50;0.90;;;19.80;71.80;;;;;;5012697;28;20479;-78
2021/03/03 13:09:38;;;;;;;1.50;0.90;;;19.90;72.00;;;;;;5019263;28;20504;-78